sensor_id;sensor_type;location;lat;lon;timestamp;pressure;altitude;pressure_sealevel;temperature;humidity
20656;BME280;10487;53.320;8.672;2023-02-21T00:01:57;101201.28;;;7.11;64.19
20656;BME280;10487;53.320;8.672;2023-02-21T00:05:17;101194.28;;;7.10;63.99
20656;BME280;10487;53.320;8.672;2023-02-21T00:08:37;101191.63;;;7.10;64.31
20656;BME280;10487;53.320;8.672;2023-02-21T00:11:58;101193.41;;;7.09;64.21
20656;BME280;10487;53.320;8.672;2023-02-21T00:15:18;101199.59;;;7.10;64.31
20656;BME280;10487;53.320;8.672;2023-02-21T00:18:38;101207.63;;;7.08;64.35
20656;BME280;10487;53.320;8.672;2023-02-21T00:21:58;101201.47;;;7.08;64.26
20656;BME280;10487;53.320;8.672;2023-02-21T00:25:19;101209.44;;;7.08;64.11
20656;BME280;10487;53.320;8.672;2023-02-21T00:28:39;101220.06;;;7.08;64.17
20656;BME280;10487;53.320;8.672;2023-02-21T00:31:59;101216.59;;;7.06;64.39
20656;BME280;10487;53.320;8.672;2023-02-21T00:35:19;101213.88;;;7.07;64.33
20656;BME280;10487;53.320;8.672;2023-02-21T00:38:39;101222.75;;;7.06;64.22
20656;BME280;10487;53.320;8.672;2023-02-21T00:41:59;101212.25;;;7.05;64.07
20656;BME280;10487;53.320;8.672;2023-02-21T00:45:19;101217.56;;;7.05;64.48
20656;BME280;10487;53.320;8.672;2023-02-21T00:48:39;101214.91;;;7.05;64.31
20656;BME280;10487;53.320;8.672;2023-02-21T00:52:00;101224.75;;;7.03;64.31
20656;BME280;10487;53.320;8.672;2023-02-21T00:55:19;101241.50;;;7.03;64.39
20656;BME280;10487;53.320;8.672;2023-02-21T00:58:40;101227.44;;;7.01;64.35
20656;BME280;10487;53.320;8.672;2023-02-21T01:02:00;101234.47;;;7.02;64.44
20656;BME280;10487;53.320;8.672;2023-02-21T01:05:20;101231.88;;;7.01;64.42
20656;BME280;10487;53.320;8.672;2023-02-21T01:08:44;101231.88;;;7.01;64.55
20656;BME280;10487;53.320;8.672;2023-02-21T01:12:04;101232.75;;;7.01;64.54
20656;BME280;10487;53.320;8.672;2023-02-21T01:15:24;101230.09;;;7.01;64.41
20656;BME280;10487;53.320;8.672;2023-02-21T01:18:44;101238.94;;;7.02;64.50
20656;BME280;10487;53.320;8.672;2023-02-21T01:22:05;101240.81;;;7.00;64.50
20656;BME280;10487;53.320;8.672;2023-02-21T01:25:25;101239.94;;;6.99;64.33
20656;BME280;10487;53.320;8.672;2023-02-21T01:28:46;101248.00;;;6.98;64.50
20656;BME280;10487;53.320;8.672;2023-02-21T01:32:06;101242.69;;;6.98;64.51
20656;BME280;10487;53.320;8.672;2023-02-21T01:35:26;101232.13;;;6.96;64.51
20656;BME280;10487;53.320;8.672;2023-02-21T01:38:46;101236.56;;;6.96;64.46
20656;BME280;10487;53.320;8.672;2023-02-21T01:42:09;101236.50;;;6.97;64.65
20656;BME280;10487;53.320;8.672;2023-02-21T01:48:51;101234.78;;;6.96;64.74
20656;BME280;10487;53.320;8.672;2023-02-21T01:52:13;101236.56;;;6.96;64.71
20656;BME280;10487;53.320;8.672;2023-02-21T01:55:35;101234.78;;;6.96;64.55
20656;BME280;10487;53.320;8.672;2023-02-21T01:59:00;101226.91;;;6.95;64.61
20656;BME280;10487;53.320;8.672;2023-02-21T02:02:27;101229.56;;;6.95;64.59
20656;BME280;10487;53.320;8.672;2023-02-21T02:06:00;101236.66;;;6.94;64.46
20656;BME280;10487;53.320;8.672;2023-02-21T02:09:21;101234.97;;;6.93;64.52
20656;BME280;10487;53.320;8.672;2023-02-21T02:12:51;101236.81;;;6.91;64.62
20656;BME280;10487;53.320;8.672;2023-02-21T02:32:58;101247.38;;;6.93;64.76
20656;BME280;10487;53.320;8.672;2023-02-21T02:36:05;101250.03;;;6.93;64.57
20656;BME280;10487;53.320;8.672;2023-02-21T02:39:41;101256.09;;;6.95;64.85
20656;BME280;10487;53.320;8.672;2023-02-21T02:46:09;101248.13;;;6.95;64.61
20656;BME280;10487;53.320;8.672;2023-02-21T02:49:17;101257.78;;;6.96;64.68
20656;BME280;10487;53.320;8.672;2023-02-21T02:52:20;101257.88;;;6.94;64.80
20656;BME280;10487;53.320;8.672;2023-02-21T02:58:39;101257.03;;;6.94;64.77
20656;BME280;10487;53.320;8.672;2023-02-21T03:08:45;101264.97;;;6.94;64.66
20656;BME280;10487;53.320;8.672;2023-02-21T03:12:08;101264.16;;;6.93;64.63
20656;BME280;10487;53.320;8.672;2023-02-21T03:15:21;101275.59;;;6.94;64.79
20656;BME280;10487;53.320;8.672;2023-02-21T03:18:30;101272.94;;;6.94;64.65
20656;BME280;10487;53.320;8.672;2023-02-21T03:21:41;101270.38;;;6.92;64.78
20656;BME280;10487;53.320;8.672;2023-02-21T03:24:46;101265.94;;;6.93;64.95
20656;BME280;10487;53.320;8.672;2023-02-21T03:27:50;101268.59;;;6.93;64.86
20656;BME280;10487;53.320;8.672;2023-02-21T03:30:55;101265.84;;;6.94;64.68
20656;BME280;10487;53.320;8.672;2023-02-21T03:33:58;101272.88;;;6.95;64.74
20656;BME280;10487;53.320;8.672;2023-02-21T03:37:00;101281.69;;;6.96;64.77
20656;BME280;10487;53.320;8.672;2023-02-21T03:40:04;101275.53;;;6.95;64.78
20656;BME280;10487;53.320;8.672;2023-02-21T03:43:06;101277.31;;;6.95;64.79
20656;BME280;10487;53.320;8.672;2023-02-21T03:46:08;101282.63;;;6.95;64.78
20656;BME280;10487;53.320;8.672;2023-02-21T03:49:09;101277.41;;;6.93;64.90
20656;BME280;10487;53.320;8.672;2023-02-21T03:52:11;101281.75;;;6.94;64.76
20656;BME280;10487;53.320;8.672;2023-02-21T03:55:13;101272.94;;;6.94;64.82
20656;BME280;10487;53.320;8.672;2023-02-21T03:58:14;101272.94;;;6.94;64.91
20656;BME280;10487;53.320;8.672;2023-02-21T04:01:16;101274.75;;;6.93;64.76
20656;BME280;10487;53.320;8.672;2023-02-21T04:04:18;101272.94;;;6.94;64.94
20656;BME280;10487;53.320;8.672;2023-02-21T04:07:20;101267.63;;;6.94;64.82
20656;BME280;10487;53.320;8.672;2023-02-21T04:10:21;101269.44;;;6.93;64.85
20656;BME280;10487;53.320;8.672;2023-02-21T04:13:23;101279.13;;;6.94;65.09
20656;BME280;10487;53.320;8.672;2023-02-21T04:16:25;101277.41;;;6.93;64.85
20656;BME280;10487;53.320;8.672;2023-02-21T04:19:26;101276.56;;;6.93;64.87
20656;BME280;10487;53.320;8.672;2023-02-21T04:22:28;101272.09;;;6.93;64.84
20656;BME280;10487;53.320;8.672;2023-02-21T04:25:30;101280.06;;;6.93;65.15
20656;BME280;10487;53.320;8.672;2023-02-21T04:28:31;101272.88;;;6.95;65.01
20656;BME280;10487;53.320;8.672;2023-02-21T04:31:33;101267.63;;;6.94;64.77
20656;BME280;10487;53.320;8.672;2023-02-21T04:34:35;101274.75;;;6.93;64.82
20656;BME280;10487;53.320;8.672;2023-02-21T04:37:36;101267.72;;;6.92;64.96
20656;BME280;10487;53.320;8.672;2023-02-21T04:40:38;101271.25;;;6.93;64.81
20656;BME280;10487;53.320;8.672;2023-02-21T04:43:41;101277.41;;;6.93;64.92
20656;BME280;10487;53.320;8.672;2023-02-21T04:46:43;101276.56;;;6.93;65.02
20656;BME280;10487;53.320;8.672;2023-02-21T04:49:45;101275.59;;;6.94;65.01
20656;BME280;10487;53.320;8.672;2023-02-21T04:52:51;101271.25;;;6.93;64.96
20656;BME280;10487;53.320;8.672;2023-02-21T04:55:53;101274.75;;;6.93;64.90
20656;BME280;10487;53.320;8.672;2023-02-21T04:58:55;101270.28;;;6.94;65.08
20656;BME280;10487;53.320;8.672;2023-02-21T05:01:57;101269.44;;;6.93;65.05
20656;BME280;10487;53.320;8.672;2023-02-21T05:05:03;101274.81;;;6.92;65.00
20656;BME280;10487;53.320;8.672;2023-02-21T05:08:04;101268.59;;;6.93;65.20
20656;BME280;10487;53.320;8.672;2023-02-21T05:11:06;101273.94;;;6.91;65.06
20656;BME280;10487;53.320;8.672;2023-02-21T05:14:09;101275.78;;;6.91;64.87
20656;BME280;10487;53.320;8.672;2023-02-21T05:17:11;101269.59;;;6.90;64.97
20656;BME280;10487;53.320;8.672;2023-02-21T05:20:12;101274.97;;;6.89;64.83
20656;BME280;10487;53.320;8.672;2023-02-21T05:23:15;101269.66;;;6.89;65.04
20656;BME280;10487;53.320;8.672;2023-02-21T05:26:19;101265.31;;;6.88;64.87
20656;BME280;10487;53.320;8.672;2023-02-21T05:29:21;101265.31;;;6.88;65.17
20656;BME280;10487;53.320;8.672;2023-02-21T05:32:22;101267.97;;;6.88;65.17
20656;BME280;10487;53.320;8.672;2023-02-21T05:35:24;101260.06;;;6.86;65.13
20656;BME280;10487;53.320;8.672;2023-02-21T05:38:26;101257.41;;;6.86;65.02
20656;BME280;10487;53.320;8.672;2023-02-21T05:41:27;101265.22;;;6.89;65.19
20656;BME280;10487;53.320;8.672;2023-02-21T05:44:29;101271.06;;;6.96;65.27
20656;BME280;10487;53.320;8.672;2023-02-21T05:47:33;101269.66;;;7.06;65.36
20656;BME280;10487;53.320;8.672;2023-02-21T05:50:35;101264.97;;;7.11;65.00
20656;BME280;10487;53.320;8.672;2023-02-21T05:53:37;101280.91;;;7.11;65.11
20656;BME280;10487;53.320;8.672;2023-02-21T05:56:39;101283.66;;;7.09;64.99
20656;BME280;10487;53.320;8.672;2023-02-21T05:59:41;101286.44;;;7.06;65.11
20656;BME280;10487;53.320;8.672;2023-02-21T06:02:43;101287.56;;;7.02;65.07
20656;BME280;10487;53.320;8.672;2023-02-21T06:05:45;101289.44;;;7.00;64.94
20656;BME280;10487;53.320;8.672;2023-02-21T06:08:48;101294.78;;;6.99;65.14
20656;BME280;10487;53.320;8.672;2023-02-21T06:11:49;101295.91;;;6.95;64.91
20656;BME280;10487;53.320;8.672;2023-02-21T06:14:51;101295.13;;;6.93;65.07
20656;BME280;10487;53.320;8.672;2023-02-21T06:17:53;101299.66;;;6.91;65.22
20656;BME280;10487;53.320;8.672;2023-02-21T06:20:54;101299.66;;;6.91;65.09
20656;BME280;10487;53.320;8.672;2023-02-21T06:23:56;101293.63;;;6.87;64.99
20656;BME280;10487;53.320;8.672;2023-02-21T06:26:57;101296.38;;;6.86;65.32
20656;BME280;10487;53.320;8.672;2023-02-21T06:29:59;101303.50;;;6.84;64.96
20656;BME280;10487;53.320;8.672;2023-02-21T06:33:01;101300.09;;;6.82;65.04
20656;BME280;10487;53.320;8.672;2023-02-21T06:36:04;101301.88;;;6.81;65.23
20656;BME280;10487;53.320;8.672;2023-02-21T06:39:06;101298.38;;;6.81;65.12
20656;BME280;10487;53.320;8.672;2023-02-21T06:42:12;101309.91;;;6.80;65.16
20656;BME280;10487;53.320;8.672;2023-02-21T06:45:14;101308.38;;;6.76;65.25
20656;BME280;10487;53.320;8.672;2023-02-21T06:48:16;101304.91;;;6.74;65.14
20656;BME280;10487;53.320;8.672;2023-02-21T06:51:18;101312.84;;;6.74;65.18
20656;BME280;10487;53.320;8.672;2023-02-21T06:54:19;101315.69;;;6.71;65.23
20656;BME280;10487;53.320;8.672;2023-02-21T06:57:21;101314.72;;;6.72;65.16
20656;BME280;10487;53.320;8.672;2023-02-21T07:00:23;101312.06;;;6.72;65.21
20656;BME280;10487;53.320;8.672;2023-02-21T07:03:27;101302.41;;;6.71;65.40
20656;BME280;10487;53.320;8.672;2023-02-21T07:06:29;101306.78;;;6.72;65.28
20656;BME280;10487;53.320;8.672;2023-02-21T07:09:32;101307.63;;;6.72;65.40
20656;BME280;10487;53.320;8.672;2023-02-21T07:12:34;101311.22;;;6.71;65.17
20656;BME280;10487;53.320;8.672;2023-02-21T07:15:35;101315.69;;;6.71;65.30
20656;BME280;10487;53.320;8.672;2023-02-21T07:18:37;101319.16;;;6.71;65.26
20656;BME280;10487;53.320;8.672;2023-02-21T07:21:39;101320.91;;;6.72;65.29
20656;BME280;10487;53.320;8.672;2023-02-21T07:24:40;101319.97;;;6.73;65.26
20656;BME280;10487;53.320;8.672;2023-02-21T07:27:42;101320.25;;;6.86;65.46
20656;BME280;10487;53.320;8.672;2023-02-21T07:30:44;101327.19;;;6.88;65.38
20656;BME280;10487;53.320;8.672;2023-02-21T07:33:46;101333.41;;;6.87;65.24
20656;BME280;10487;53.320;8.672;2023-02-21T07:36:48;101337.84;;;6.87;65.26
20656;BME280;10487;53.320;8.672;2023-02-21T07:39:50;101344.94;;;6.86;65.25
20656;BME280;10487;53.320;8.672;2023-02-21T07:42:51;101349.41;;;6.86;65.26
20656;BME280;10487;53.320;8.672;2023-02-21T07:45:53;101345.94;;;6.84;65.21
20656;BME280;10487;53.320;8.672;2023-02-21T07:48:55;101350.44;;;6.83;65.21
20656;BME280;10487;53.320;8.672;2023-02-21T07:51:57;101346.91;;;6.83;65.16
20656;BME280;10487;53.320;8.672;2023-02-21T07:54:58;101364.63;;;6.82;65.21
20656;BME280;10487;53.320;8.672;2023-02-21T07:58:00;101366.34;;;6.83;65.33
20656;BME280;10487;53.320;8.672;2023-02-21T08:01:03;101365.47;;;6.83;65.30
20656;BME280;10487;53.320;8.672;2023-02-21T08:04:05;101371.66;;;6.83;65.14
20656;BME280;10487;53.320;8.672;2023-02-21T08:07:07;101379.53;;;6.85;65.38
20656;BME280;10487;53.320;8.672;2023-02-21T08:10:09;101377.78;;;6.84;65.19
20656;BME280;10487;53.320;8.672;2023-02-21T08:13:11;101377.78;;;6.84;65.36
20656;BME280;10487;53.320;8.672;2023-02-21T08:16:13;101380.53;;;6.82;65.32
20656;BME280;10487;53.320;8.672;2023-02-21T08:19:15;101387.56;;;6.83;65.41
20656;BME280;10487;53.320;8.672;2023-02-21T08:22:17;101399.00;;;6.84;65.29
20656;BME280;10487;53.320;8.672;2023-02-21T08:25:19;101392.88;;;6.83;65.40
20656;BME280;10487;53.320;8.672;2023-02-21T08:28:20;101388.47;;;6.82;65.32
20656;BME280;10487;53.320;8.672;2023-02-21T08:31:22;101387.56;;;6.83;65.41
20656;BME280;10487;53.320;8.672;2023-02-21T08:34:24;101388.41;;;6.84;65.43
20656;BME280;10487;53.320;8.672;2023-02-21T08:37:25;101397.22;;;6.84;65.34
20656;BME280;10487;53.320;8.672;2023-02-21T08:40:33;101394.56;;;6.84;65.22
20656;BME280;10487;53.320;8.672;2023-02-21T08:43:34;101397.16;;;6.86;65.25
20656;BME280;10487;53.320;8.672;2023-02-21T08:46:36;101401.53;;;6.87;65.51
20656;BME280;10487;53.320;8.672;2023-02-21T08:49:43;101395.16;;;6.91;65.34
20656;BME280;10487;53.320;8.672;2023-02-21T08:52:46;101395.84;;;6.94;65.36
20656;BME280;10487;53.320;8.672;2023-02-21T08:55:47;101394.69;;;7.00;65.55
20656;BME280;10487;53.320;8.672;2023-02-21T08:58:50;101405.28;;;7.35;66.02
20656;BME280;10487;53.320;8.672;2023-02-21T09:01:51;101401.41;;;7.43;65.55
20656;BME280;10487;53.320;8.672;2023-02-21T09:04:53;101412.09;;;7.41;65.29
20656;BME280;10487;53.320;8.672;2023-02-21T09:07:57;101407.78;;;7.39;65.28
20656;BME280;10487;53.320;8.672;2023-02-21T09:10:59;101411.56;;;7.34;65.43
20656;BME280;10487;53.320;8.672;2023-02-21T09:14:01;101407.41;;;7.29;65.47
20656;BME280;10487;53.320;8.672;2023-02-21T09:17:10;101412.00;;;7.25;65.28
20656;BME280;10487;53.320;8.672;2023-02-21T09:20:20;101404.97;;;7.24;65.46
20656;BME280;10487;53.320;8.672;2023-02-21T09:23:27;101418.25;;;7.24;65.63
20656;BME280;10487;53.320;8.672;2023-02-21T09:26:29;101406.84;;;7.22;65.51
20656;BME280;10487;53.320;8.672;2023-02-21T09:29:35;101405.97;;;7.22;65.42
20656;BME280;10487;53.320;8.672;2023-02-21T09:32:47;101413.09;;;7.21;65.44
20656;BME280;10487;53.320;8.672;2023-02-21T09:35:49;101408.63;;;7.22;65.42
20656;BME280;10487;53.320;8.672;2023-02-21T09:38:51;101408.81;;;7.36;65.77
20656;BME280;10487;53.320;8.672;2023-02-21T09:41:53;101406.94;;;7.38;65.59
20656;BME280;10487;53.320;8.672;2023-02-21T09:44:57;101406.09;;;7.38;65.44
20656;BME280;10487;53.320;8.672;2023-02-21T09:48:17;101413.09;;;7.39;65.20
20656;BME280;10487;53.320;8.672;2023-02-21T09:51:20;101409.59;;;7.38;65.50
20656;BME280;10487;53.320;8.672;2023-02-21T09:54:30;101410.38;;;7.40;65.53
20656;BME280;10487;53.320;8.672;2023-02-21T09:57:32;101409.53;;;7.40;65.45
20656;BME280;10487;53.320;8.672;2023-02-21T10:00:36;101405.91;;;7.41;65.48
20656;BME280;10487;53.320;8.672;2023-02-21T10:06:50;101406.88;;;7.40;65.53
20656;BME280;10487;53.320;8.672;2023-02-21T10:13:26;101413.59;;;7.47;65.34
20656;BME280;10487;53.320;8.672;2023-02-21T10:16:37;101414.47;;;7.47;65.34
20656;BME280;10487;53.320;8.672;2023-02-21T10:19:43;101417.09;;;7.47;65.52
20656;BME280;10487;53.320;8.672;2023-02-21T10:22:47;101415.38;;;7.46;65.55
20656;BME280;10487;53.320;8.672;2023-02-21T10:25:54;101411.03;;;7.45;65.49
20656;BME280;10487;53.320;8.672;2023-02-21T10:28:59;101418.81;;;7.48;65.51
20656;BME280;10487;53.320;8.672;2023-02-21T10:32:01;101417.97;;;7.48;65.32
20656;BME280;10487;53.320;8.672;2023-02-21T10:35:04;101425.84;;;7.49;65.59
20656;BME280;10487;53.320;8.672;2023-02-21T10:38:09;101430.16;;;7.52;65.53
20656;BME280;10487;53.320;8.672;2023-02-21T10:41:12;101430.06;;;7.53;65.42
20656;BME280;10487;53.320;8.672;2023-02-21T10:44:20;101433.59;;;7.54;65.49
20656;BME280;10487;53.320;8.672;2023-02-21T10:47:30;101442.41;;;7.54;65.41
20656;BME280;10487;53.320;8.672;2023-02-21T10:50:48;101435.22;;;7.56;65.38
20656;BME280;10487;53.320;8.672;2023-02-21T10:53:50;101436.09;;;7.57;65.56
20656;BME280;10487;53.320;8.672;2023-02-21T10:56:53;101440.38;;;7.59;65.60
20656;BME280;10487;53.320;8.672;2023-02-21T10:59:55;101436.88;;;7.59;65.56
20656;BME280;10487;53.320;8.672;2023-02-21T11:03:03;101441.16;;;7.61;65.54
20656;BME280;10487;53.320;8.672;2023-02-21T11:06:06;101442.09;;;7.60;65.58
20656;BME280;10487;53.320;8.672;2023-02-21T11:09:46;101444.69;;;7.62;65.38
20656;BME280;10487;53.320;8.672;2023-02-21T11:13:21;101447.34;;;7.62;65.55
20656;BME280;10487;53.320;8.672;2023-02-21T11:16:22;101449.03;;;7.63;65.58
20656;BME280;10487;53.320;8.672;2023-02-21T11:19:24;101434.75;;;7.65;65.66
20656;BME280;10487;53.320;8.672;2023-02-21T11:25:38;101446.19;;;7.67;65.31
20656;BME280;10487;53.320;8.672;2023-02-21T11:28:44;101447.00;;;7.68;65.57
20656;BME280;10487;53.320;8.672;2023-02-21T11:31:47;101447.81;;;7.70;65.62
20656;BME280;10487;53.320;8.672;2023-02-21T11:34:49;101454.78;;;7.72;65.54
20656;BME280;10487;53.320;8.672;2023-02-21T11:38:04;101452.19;;;7.71;65.50
20656;BME280;10487;53.320;8.672;2023-02-21T11:41:22;101445.09;;;7.71;65.46
20656;BME280;10487;53.320;8.672;2023-02-21T11:44:31;101445.81;;;7.75;65.50
20656;BME280;10487;53.320;8.672;2023-02-21T11:47:52;101446.56;;;7.77;65.53
20656;BME280;10487;53.320;8.672;2023-02-21T11:51:00;101443.06;;;7.76;65.33
20656;BME280;10487;53.320;8.672;2023-02-21T11:54:06;101447.25;;;7.80;65.60
20656;BME280;10487;53.320;8.672;2023-02-21T12:07:19;101446.09;;;7.86;65.29
20656;BME280;10487;53.320;8.672;2023-02-21T12:17:11;101435.69;;;7.98;65.44
20656;BME280;10487;53.320;8.672;2023-02-21T12:27:26;101420.28;;;8.05;65.37
20656;BME280;10487;53.320;8.672;2023-02-21T12:30:56;101426.44;;;8.07;65.48
20656;BME280;10487;53.320;8.672;2023-02-21T12:37:49;101430.13;;;8.03;65.41
20656;BME280;10487;53.320;8.672;2023-02-21T12:47:40;101423.88;;;8.04;65.57
20656;BME280;10487;53.320;8.672;2023-02-21T12:50:49;101429.22;;;8.04;65.38
20656;BME280;10487;53.320;8.672;2023-02-21T12:53:57;101420.38;;;8.04;65.31
20656;BME280;10487;53.320;8.672;2023-02-21T12:57:29;101425.16;;;8.14;66.12
20656;BME280;10487;53.320;8.672;2023-02-21T13:00:50;101415.50;;;8.29;65.72
20656;BME280;10487;53.320;8.672;2023-02-21T13:07:17;101423.47;;;8.29;65.42
20656;BME280;10487;53.320;8.672;2023-02-21T13:13:53;101427.31;;;8.23;65.52
20656;BME280;10487;53.320;8.672;2023-02-21T13:16:56;101416.78;;;8.22;65.54
20656;BME280;10487;53.320;8.672;2023-02-21T13:20:03;101410.75;;;8.18;65.34
20656;BME280;10487;53.320;8.672;2023-02-21T13:33:41;101409.38;;;8.11;65.59
20656;BME280;10487;53.320;8.672;2023-02-21T13:36:46;101406.81;;;8.10;65.47
20656;BME280;10487;53.320;8.672;2023-02-21T13:39:58;101404.97;;;8.10;65.51
20656;BME280;10487;53.320;8.672;2023-02-21T13:43:23;101402.16;;;8.13;65.51
20656;BME280;10487;53.320;8.672;2023-02-21T13:49:54;101397.16;;;8.24;65.57
20656;BME280;10487;53.320;8.672;2023-02-21T13:59:30;101394.28;;;8.27;65.41
20656;BME280;10487;53.320;8.672;2023-02-21T14:02:33;101393.38;;;8.28;65.40
20656;BME280;10487;53.320;8.672;2023-02-21T14:08:58;101391.56;;;8.29;65.56
20656;BME280;10487;53.320;8.672;2023-02-21T14:12:02;101394.22;;;8.29;65.51
20656;BME280;10487;53.320;8.672;2023-02-21T14:15:06;101391.47;;;8.30;65.44
20656;BME280;10487;53.320;8.672;2023-02-21T14:21:46;101394.91;;;8.32;65.41
20656;BME280;10487;53.320;8.672;2023-02-21T14:24:51;101386.00;;;8.33;65.44
20656;BME280;10487;53.320;8.672;2023-02-21T14:38:23;101390.28;;;8.36;65.37
20656;BME280;10487;53.320;8.672;2023-02-21T15:05:23;101389.06;;;8.74;65.94
20656;BME280;10487;53.320;8.672;2023-02-21T15:08:26;101395.38;;;9.03;65.99
20656;BME280;10487;53.320;8.672;2023-02-21T15:11:36;101392.28;;;9.10;65.41
20656;BME280;10487;53.320;8.672;2023-02-21T15:14:40;101377.53;;;9.05;65.27
20656;BME280;10487;53.320;8.672;2023-02-21T15:18:04;101380.53;;;8.99;65.22
20656;BME280;10487;53.320;8.672;2023-02-21T15:21:16;101379.16;;;8.92;65.33
20656;BME280;10487;53.320;8.672;2023-02-21T15:24:21;101389.22;;;8.87;65.27
20656;BME280;10487;53.320;8.672;2023-02-21T15:27:23;101383.22;;;8.83;65.28
20656;BME280;10487;53.320;8.672;2023-02-21T15:30:39;101382.50;;;8.80;65.33
20656;BME280;10487;53.320;8.672;2023-02-21T15:33:42;101380.13;;;8.75;65.36
20656;BME280;10487;53.320;8.672;2023-02-21T15:37:01;101378.59;;;8.71;65.40
20656;BME280;10487;53.320;8.672;2023-02-21T15:40:14;101376.09;;;8.68;65.39
20656;BME280;10487;53.320;8.672;2023-02-21T15:43:29;101371.88;;;8.64;65.29
20656;BME280;10487;53.320;8.672;2023-02-21T15:46:48;101370.94;;;8.65;65.27
20656;BME280;10487;53.320;8.672;2023-02-21T15:53:23;101376.59;;;8.59;65.33
20656;BME280;10487;53.320;8.672;2023-02-21T15:56:25;101371.44;;;8.56;65.30
20656;BME280;10487;53.320;8.672;2023-02-21T15:59:29;101379.59;;;8.53;65.38
20656;BME280;10487;53.320;8.672;2023-02-21T16:02:31;101380.63;;;8.50;65.29
20656;BME280;10487;53.320;8.672;2023-02-21T16:05:33;101394.00;;;8.49;65.28
20656;BME280;10487;53.320;8.672;2023-02-21T16:08:50;101387.84;;;8.48;65.22
20656;BME280;10487;53.320;8.672;2023-02-21T16:11:57;101393.25;;;8.47;65.27
20656;BME280;10487;53.320;8.672;2023-02-21T16:15:13;101394.19;;;8.46;65.40
20656;BME280;10487;53.320;8.672;2023-02-21T16:18:19;101388.94;;;8.44;65.48
20656;BME280;10487;53.320;8.672;2023-02-21T16:21:24;101393.41;;;8.44;65.32
20656;BME280;10487;53.320;8.672;2023-02-21T16:24:29;101395.19;;;8.43;65.24
20656;BME280;10487;53.320;8.672;2023-02-21T16:27:31;101395.28;;;8.42;65.35
20656;BME280;10487;53.320;8.672;2023-02-21T16:30:33;101395.34;;;8.40;65.37
20656;BME280;10487;53.320;8.672;2023-02-21T16:33:35;101392.69;;;8.40;65.29
20656;BME280;10487;53.320;8.672;2023-02-21T16:36:37;101404.31;;;8.39;65.30
20656;BME280;10487;53.320;8.672;2023-02-21T16:39:41;101406.09;;;8.39;65.38
20656;BME280;10487;53.320;8.672;2023-02-21T16:42:43;101402.56;;;8.38;65.30
20656;BME280;10487;53.320;8.672;2023-02-21T16:45:46;101401.69;;;8.38;65.22
20656;BME280;10487;53.320;8.672;2023-02-21T16:48:56;101410.63;;;8.37;65.40
20656;BME280;10487;53.320;8.672;2023-02-21T16:51:58;101408.03;;;8.35;65.43
20656;BME280;10487;53.320;8.672;2023-02-21T16:54:59;101413.38;;;8.35;65.25
20656;BME280;10487;53.320;8.672;2023-02-21T16:58:04;101412.50;;;8.35;65.30
20656;BME280;10487;53.320;8.672;2023-02-21T17:01:13;101411.72;;;8.33;65.16
20656;BME280;10487;53.320;8.672;2023-02-21T17:04:21;101410.88;;;8.32;65.34
20656;BME280;10487;53.320;8.672;2023-02-21T17:07:24;101405.53;;;8.32;65.26
20656;BME280;10487;53.320;8.672;2023-02-21T17:10:26;101416.28;;;8.31;65.26
20656;BME280;10487;53.320;8.672;2023-02-21T17:13:27;101427.69;;;8.33;65.33
20656;BME280;10487;53.320;8.672;2023-02-21T17:16:29;101428.56;;;8.33;65.20
20656;BME280;10487;53.320;8.672;2023-02-21T17:19:31;101428.56;;;8.33;65.19
20656;BME280;10487;53.320;8.672;2023-02-21T17:22:32;101424.97;;;8.34;65.04
20656;BME280;10487;53.320;8.672;2023-02-21T17:25:34;101428.44;;;8.35;65.08
20656;BME280;10487;53.320;8.672;2023-02-21T17:28:37;101430.19;;;8.36;65.05
20656;BME280;10487;53.320;8.672;2023-02-21T17:31:41;101433.63;;;8.38;65.08
20656;BME280;10487;53.320;8.672;2023-02-21T17:34:44;101422.91;;;8.39;65.05
20656;BME280;10487;53.320;8.672;2023-02-21T17:37:46;101429.06;;;8.40;65.07
20656;BME280;10487;53.320;8.672;2023-02-21T17:40:50;101429.00;;;8.41;64.99
20656;BME280;10487;53.320;8.672;2023-02-21T17:43:53;101425.47;;;8.41;64.95
20656;BME280;10487;53.320;8.672;2023-02-21T17:46:56;101429.06;;;8.40;65.07
20656;BME280;10487;53.320;8.672;2023-02-21T17:49:58;101425.56;;;8.39;65.01
20656;BME280;10487;53.320;8.672;2023-02-21T17:53:03;101430.03;;;8.39;64.96
20656;BME280;10487;53.320;8.672;2023-02-21T17:56:04;101430.97;;;8.38;64.85
20656;BME280;10487;53.320;8.672;2023-02-21T17:59:06;101439.03;;;8.36;64.90
20656;BME280;10487;53.320;8.672;2023-02-21T18:02:08;101432.84;;;8.36;64.96
20656;BME280;10487;53.320;8.672;2023-02-21T18:05:09;101432.06;;;8.34;64.87
20656;BME280;10487;53.320;8.672;2023-02-21T18:08:11;101433.00;;;8.33;64.86
20656;BME280;10487;53.320;8.672;2023-02-21T18:11:15;101438.31;;;8.33;64.84
20656;BME280;10487;53.320;8.672;2023-02-21T18:14:19;101435.75;;;8.31;64.87
20656;BME280;10487;53.320;8.672;2023-02-21T18:17:20;101441.13;;;8.30;64.76
20656;BME280;10487;53.320;8.672;2023-02-21T18:20:22;101442.16;;;8.27;64.68
20656;BME280;10487;53.320;8.672;2023-02-21T18:23:25;101442.25;;;8.26;64.89
20656;BME280;10487;53.320;8.672;2023-02-21T18:26:27;101440.63;;;8.23;64.83
20656;BME280;10487;53.320;8.672;2023-02-21T18:29:29;101448.69;;;8.22;64.96
20656;BME280;10487;53.320;8.672;2023-02-21T18:32:32;101443.38;;;8.22;64.70
20656;BME280;10487;53.320;8.672;2023-02-21T18:35:34;101440.78;;;8.20;64.89
20656;BME280;10487;53.320;8.672;2023-02-21T18:38:38;101455.88;;;8.20;64.97
20656;BME280;10487;53.320;8.672;2023-02-21T18:41:40;101450.63;;;8.18;64.91
20656;BME280;10487;53.320;8.672;2023-02-21T18:44:42;101457.75;;;8.18;64.91
20656;BME280;10487;53.320;8.672;2023-02-21T18:47:44;101458.69;;;8.17;64.92
20656;BME280;10487;53.320;8.672;2023-02-21T18:50:46;101463.25;;;8.15;65.00
20656;BME280;10487;53.320;8.672;2023-02-21T18:53:49;101454.31;;;8.16;64.92
20656;BME280;10487;53.320;8.672;2023-02-21T18:56:51;101453.44;;;8.15;64.81
20656;BME280;10487;53.320;8.672;2023-02-21T18:59:52;101456.91;;;8.17;65.01